Time;durP1;ratioP1;P1;durP2;ratioP2;P2;SDS_P1;SDS_P2;PMS_P1;PMS_P2;Temp;Humidity;BMP_temperature;BMP_pressure;BME280_temperature;BME280_humidity;BME280_pressure;Samples;Min_cycle;Max_cycle;Signal;HPM_P1;HPM_P2
2023/03/03 00:02:22;;;;;;;35.83;25.17;;;;;;;5.33;62.43;102312.13;5025102;28;20057;-60
2023/03/03 00:04:47;;;;;;;36.70;24.92;;;;;;;5.31;62.64;102306.81;5031294;28;20065;-60
2023/03/03 00:07:20;;;;;;;37.95;25.27;;;;;;;5.31;62.92;102308.72;5030972;28;20029;-59
2023/03/03 00:09:45;;;;;;;34.58;24.70;;;;;;;5.21;63.38;102305.31;5021045;28;20166;-60
2023/03/03 00:12:29;;;;;;;36.75;25.02;;;;;;;5.30;63.05;102304.22;5025715;28;20420;-59
2023/03/03 00:14:54;;;;;;;38.30;26.05;;;;;;;5.17;62.85;102300.19;5031270;28;20044;-59
2023/03/03 00:17:23;;;;;;;39.67;25.98;;;;;;;5.20;63.36;102306.38;5030449;28;20481;-59
2023/03/03 00:19:50;;;;;;;37.97;24.70;;;;;;;5.29;63.16;102308.88;5030169;28;20030;-59
2023/03/03 00:22:26;;;;;;;38.75;25.52;;;;;;;5.29;63.12;102311.63;5027394;28;20452;-59
2023/03/03 00:24:52;;;;;;;36.63;24.83;;;;;;;5.31;62.90;102311.47;5027699;28;20386;-60
2023/03/03 00:27:34;;;;;;;39.50;24.80;;;;;;;5.30;63.20;102312.47;5027732;28;20029;-59
2023/03/03 00:30:00;;;;;;;38.40;24.40;;;;;;;5.26;63.37;102309.22;5028878;28;20156;-59
2023/03/03 00:32:42;;;;;;;36.78;23.48;;;;;;;5.20;63.26;102309.97;5028515;28;20107;-59
2023/03/03 00:35:29;;;;;;;36.27;23.37;;;;;;;5.26;63.29;102311.97;5024359;28;20029;-60
2023/03/03 00:38:00;;;;;;;34.45;23.15;;;;;;;5.20;63.66;102312.72;5023662;28;20294;-59
2023/03/03 00:40:36;;;;;;;34.28;22.58;;;;;;;5.15;63.91;102324.28;5030679;28;20040;-59
2023/03/03 00:43:21;;;;;;;34.97;23.33;;;;;;;5.18;63.88;102309.28;5028058;28;20510;-60
2023/03/03 00:45:55;;;;;;;35.47;22.73;;;;;;;5.23;64.05;102319.78;5031103;28;20050;-60
2023/03/03 00:48:25;;;;;;;37.30;23.77;;;;;;;5.16;63.95;102320.50;5010914;28;20026;-59
2023/03/03 00:50:58;;;;;;;32.70;22.27;;;;;;;5.14;64.13;102319.81;5014454;28;20030;-60
2023/03/03 00:53:29;;;;;;;31.95;21.60;;;;;;;5.17;64.12;102316.69;5027937;28;20037;-60
2023/03/03 00:55:54;;;;;;;35.83;22.83;;;;;;;5.20;63.74;102317.38;5028064;28;20030;-59
2023/03/03 00:58:21;;;;;;;33.83;21.55;;;;;;;5.15;63.87;102321.53;5030043;28;20026;-59
2023/03/03 01:00:49;;;;;;;35.13;22.50;;;;;;;5.12;63.79;102313.63;5028437;28;20511;-59
2023/03/03 01:03:18;;;;;;;34.45;21.98;;;;;;;5.10;64.01;102318.44;5028047;28;20120;-60
2023/03/03 01:05:43;;;;;;;35.60;22.80;;;;;;;5.11;63.96;102316.59;5027912;28;20038;-59
2023/03/03 01:08:09;;;;;;;35.25;22.00;;;;;;;5.08;63.79;102316.94;5028722;28;20085;-59
2023/03/03 01:10:39;;;;;;;33.05;22.23;;;;;;;5.01;64.14;102322.31;5029133;28;20400;-59
2023/03/03 01:13:06;;;;;;;33.25;22.20;;;;;;;5.05;64.12;102320.91;5029791;28;20354;-59
2023/03/03 01:15:32;;;;;;;35.20;22.27;;;;;;;5.02;64.05;102329.50;5027839;28;20119;-59
2023/03/03 01:17:57;;;;;;;37.63;23.05;;;;;;;5.05;64.01;102320.91;5024014;28;20496;-59
2023/03/03 01:20:23;;;;;;;34.83;21.42;;;;;;;5.05;64.24;102328.31;5009489;28;20117;-59
2023/03/03 01:22:49;;;;;;;33.78;21.95;;;;;;;5.00;64.36;102330.75;5014901;28;20021;-60
2023/03/03 01:25:14;;;;;;;33.22;22.13;;;;;;;4.97;64.42;102339.34;5029003;28;20029;-59
2023/03/03 01:27:40;;;;;;;34.97;21.58;;;;;;;4.96;64.32;102335.75;5025085;28;20037;-60
2023/03/03 01:30:06;;;;;;;35.30;22.65;;;;;;;4.93;64.71;102325.09;5030244;28;20029;-60
2023/03/03 01:32:32;;;;;;;35.03;23.05;;;;;;;4.91;64.47;102336.28;5028653;28;20049;-59
2023/03/03 01:34:57;;;;;;;34.53;22.55;;;;;;;4.93;64.58;102338.84;5025673;28;20135;-59
2023/03/03 01:37:22;;;;;;;32.60;21.63;;;;;;;4.93;64.41;102336.09;5027091;28;20030;-60
2023/03/03 01:39:54;;;;;;;34.53;22.75;;;;;;;4.99;64.44;102332.66;5029138;28;20043;-60
2023/03/03 01:42:20;;;;;;;35.33;22.48;;;;;;;4.96;63.94;102337.66;5028130;28;20072;-60
2023/03/03 01:44:46;;;;;;;34.78;22.65;;;;;;;5.00;64.23;102341.75;5027037;28;20062;-59
2023/03/03 01:47:19;;;;;;;36.40;23.15;;;;;;;4.97;64.15;102345.72;5032548;28;20037;-59
2023/03/03 01:49:56;;;;;;;35.28;21.60;;;;;;;4.99;64.13;102346.41;5029947;28;20022;-59
2023/03/03 01:52:34;;;;;;;35.58;21.90;;;;;;;5.01;63.40;102344.31;5026300;28;20060;-59
2023/03/03 01:55:05;;;;;;;36.53;22.55;;;;;;;5.00;63.30;102341.75;5029904;28;20037;-59
2023/03/03 01:57:36;;;;;;;36.72;23.42;;;;;;;4.99;63.40;102337.25;5033243;28;20075;-59
2023/03/03 02:00:03;;;;;;;34.75;22.67;;;;;;;5.02;63.29;102343.28;5030823;28;20037;-60
2023/03/03 02:02:30;;;;;;;33.78;22.00;;;;;;;5.01;62.88;102337.97;5031638;28;20037;-59
2023/03/03 02:04:56;;;;;;;35.33;22.65;;;;;;;4.98;63.43;102339.16;5032449;28;20091;-60
2023/03/03 02:07:24;;;;;;;32.88;22.92;;;;;;;4.97;63.02;102334.72;5033380;28;20033;-59
2023/03/03 02:10:00;;;;;;;33.40;22.50;;;;;;;4.92;63.45;102329.75;5026525;28;20038;-59
2023/03/03 02:12:32;;;;;;;34.13;23.10;;;;;;;4.91;63.02;102330.78;5029429;28;20071;-59
2023/03/03 02:14:58;;;;;;;37.83;23.38;;;;;;;4.90;63.17;102330.94;5027160;28;20160;-59
2023/03/03 02:17:23;;;;;;;35.58;23.70;;;;;;;4.86;63.05;102337.84;5032424;28;20372;-59
2023/03/03 02:20:05;;;;;;;34.30;23.25;;;;;;;4.83;63.11;102336.31;5028328;28;20086;-59
2023/03/03 02:22:45;;;;;;;36.83;24.40;;;;;;;4.82;63.27;102342.00;5031648;28;20041;-60
2023/03/03 02:25:20;;;;;;;36.65;22.30;;;;;;;4.77;63.45;102341.69;5031250;28;20021;-59
2023/03/03 02:27:46;;;;;;;36.80;23.67;;;;;;;4.74;63.24;102345.63;5020016;28;20100;-60
2023/03/03 02:30:18;;;;;;;35.83;21.85;;;;;;;4.75;62.98;102344.59;5027977;28;20497;-59
2023/03/03 02:32:43;;;;;;;31.67;21.13;;;;;;;4.73;62.61;102345.81;5025906;28;20068;-60
2023/03/03 02:35:34;;;;;;;35.30;22.30;;;;;;;4.77;62.63;102347.19;5027693;28;20485;-60
2023/03/03 02:38:26;;;;;;;36.53;22.50;;;;;;;4.73;62.35;102341.19;5026411;28;20087;-59
2023/03/03 02:41:33;;;;;;;35.75;22.60;;;;;;;4.72;62.35;102346.88;5027496;28;20493;-59
2023/03/03 02:44:02;;;;;;;34.20;22.25;;;;;;;4.64;62.66;102343.13;5022526;28;20893;-59
2023/03/03 02:46:32;;;;;;;38.40;22.90;;;;;;;4.58;62.65;102337.47;5032102;28;20084;-59
2023/03/03 02:48:57;;;;;;;34.50;21.98;;;;;;;4.59;62.61;102345.50;5032886;28;20420;-60
2023/03/03 02:51:23;;;;;;;36.72;23.15;;;;;;;4.61;62.61;102343.47;5031380;28;20115;-60
2023/03/03 02:53:48;;;;;;;37.58;22.52;;;;;;;4.59;62.82;102342.75;5032835;28;20547;-60
2023/03/03 02:56:14;;;;;;;36.22;23.13;;;;;;;4.55;62.77;102344.16;5030160;28;20037;-59
2023/03/03 02:58:39;;;;;;;35.97;22.02;;;;;;;4.49;62.85;102339.38;5030526;28;20042;-60
2023/03/03 03:01:04;;;;;;;36.17;22.95;;;;;;;4.51;62.65;102339.19;5027450;28;20049;-59
2023/03/03 03:03:30;;;;;;;38.20;22.83;;;;;;;4.48;63.03;102336.78;5030717;28;20034;-59
2023/03/03 03:05:55;;;;;;;30.42;20.40;;;;;;;4.46;63.08;102350.72;5051918;28;20074;-59
2023/03/03 03:08:20;;;;;;;36.15;22.13;;;;;;;4.45;63.13;102350.91;5052076;28;20033;-59
2023/03/03 03:10:46;;;;;;;32.83;21.05;;;;;;;4.41;62.94;102353.16;5052125;28;20025;-59
2023/03/03 03:13:11;;;;;;;35.72;22.13;;;;;;;4.40;63.31;102355.06;5031836;28;20021;-59
2023/03/03 03:15:36;;;;;;;33.38;21.10;;;;;;;4.44;62.98;102355.53;5032418;28;20025;-59
2023/03/03 03:18:02;;;;;;;32.70;20.88;;;;;;;4.41;62.77;102355.91;5032254;28;20935;-59
2023/03/03 03:20:28;;;;;;;31.95;21.38;;;;;;;4.35;63.17;102354.69;5030052;28;20029;-59
2023/03/03 03:22:53;;;;;;;35.10;21.10;;;;;;;4.32;63.58;102365.19;5029951;28;20045;-61
2023/03/03 03:25:18;;;;;;;31.85;20.88;;;;;;;4.32;63.25;102359.69;5019097;28;20040;-60
2023/03/03 03:27:43;;;;;;;32.92;21.05;;;;;;;4.35;63.35;102359.34;5023490;28;20037;-60
2023/03/03 03:30:09;;;;;;;32.35;21.17;;;;;;;4.32;63.69;102357.81;5021835;28;20041;-59
2023/03/03 03:32:35;;;;;;;33.35;21.02;;;;;;;4.35;63.35;102360.19;5028702;28;20110;-59
2023/03/03 03:35:00;;;;;;;33.35;20.42;;;;;;;4.38;63.54;102359.00;5029645;28;20034;-59
2023/03/03 03:37:25;;;;;;;34.88;22.45;;;;;;;4.30;64.01;102364.50;5028827;28;20160;-59
2023/03/03 03:39:54;;;;;;;30.80;20.83;;;;;;;4.27;64.01;102364.84;5018696;28;20535;-59
2023/03/03 03:42:19;;;;;;;34.00;21.10;;;;;;;4.22;64.10;102361.78;5021591;28;20029;-59
2023/03/03 03:44:44;;;;;;;33.15;20.92;;;;;;;4.27;64.10;102373.09;5026924;28;20401;-59
2023/03/03 03:47:10;;;;;;;31.52;20.30;;;;;;;4.25;64.25;102366.94;5028739;28;20481;-59
2023/03/03 03:49:35;;;;;;;34.25;22.05;;;;;;;4.23;64.17;102361.59;5023808;28;20033;-59
2023/03/03 03:52:00;;;;;;;33.08;20.95;;;;;;;4.26;64.08;102369.50;5029049;28;20029;-59
2023/03/03 03:54:26;;;;;;;32.05;21.27;;;;;;;4.24;63.90;102370.69;5029110;28;20496;-59
2023/03/03 03:56:53;;;;;;;31.60;20.13;;;;;;;4.27;63.31;102373.97;5025376;28;20029;-59
2023/03/03 03:59:18;;;;;;;30.20;19.60;;;;;;;4.28;63.87;102370.16;5025600;28;20036;-59
2023/03/03 04:01:44;;;;;;;30.27;19.70;;;;;;;4.28;63.64;102374.81;5023703;28;20397;-59
2023/03/03 04:04:09;;;;;;;31.75;19.92;;;;;;;4.27;63.75;102378.59;5024265;28;20037;-59
2023/03/03 04:06:34;;;;;;;32.22;20.60;;;;;;;4.21;63.54;102371.94;5025248;28;20029;-59
2023/03/03 04:08:59;;;;;;;30.77;19.70;;;;;;;4.23;63.81;102374.47;5025036;28;20103;-59
2023/03/03 04:11:25;;;;;;;27.30;18.65;;;;;;;4.23;63.40;102378.09;5027888;28;20029;-59
2023/03/03 04:13:50;;;;;;;30.23;19.10;;;;;;;4.19;63.23;102383.06;5026565;28;20057;-58
2023/03/03 04:16:15;;;;;;;30.67;19.92;;;;;;;4.21;63.41;102379.31;5027299;28;20025;-59
2023/03/03 04:18:41;;;;;;;28.10;18.92;;;;;;;4.15;63.05;102376.22;5029485;28;20049;-59
2023/03/03 04:21:11;;;;;;;30.38;19.00;;;;;;;4.03;62.90;102382.22;5030870;28;20606;-59
2023/03/03 04:23:36;;;;;;;31.25;19.30;;;;;;;4.06;63.38;102370.91;5024958;28;20056;-59
2023/03/03 04:26:02;;;;;;;30.02;18.80;;;;;;;4.07;63.80;102386.34;5028612;28;20588;-59
2023/03/03 04:28:28;;;;;;;30.45;19.45;;;;;;;4.07;63.93;102380.84;5029506;28;20380;-60
2023/03/03 04:30:53;;;;;;;33.65;20.52;;;;;;;4.07;63.85;102383.59;5023287;28;20033;-60
2023/03/03 04:33:18;;;;;;;28.30;19.10;;;;;;;4.01;63.47;102390.66;5029925;28;20036;-60
2023/03/03 04:35:44;;;;;;;30.58;20.20;;;;;;;4.02;63.58;102381.38;5018574;28;20034;-60
2023/03/03 04:38:09;;;;;;;31.63;20.10;;;;;;;4.02;63.84;102386.03;5010924;28;20037;-60
2023/03/03 04:40:34;;;;;;;30.17;20.05;;;;;;;3.98;63.58;102390.16;5010710;28;20469;-60
2023/03/03 04:43:03;;;;;;;30.63;18.88;;;;;;;3.98;64.04;102390.16;5018367;28;20034;-60
2023/03/03 04:45:28;;;;;;;28.45;18.88;;;;;;;3.99;63.77;102387.22;5025696;28;20045;-60
2023/03/03 04:47:53;;;;;;;30.20;19.60;;;;;;;4.01;64.13;102384.28;5028908;28;20040;-60
2023/03/03 04:50:19;;;;;;;32.05;20.17;;;;;;;3.99;63.89;102386.34;5017946;28;20034;-60
2023/03/03 04:52:45;;;;;;;31.23;19.67;;;;;;;4.00;64.16;102377.94;5023928;28;20105;-60
2023/03/03 04:55:10;;;;;;;30.02;19.83;;;;;;;4.03;63.67;102380.34;5046636;28;20463;-60
2023/03/03 04:57:36;;;;;;;29.05;19.38;;;;;;;4.06;63.66;102388.25;5040497;28;20033;-60
2023/03/03 05:00:01;;;;;;;30.58;19.95;;;;;;;4.06;63.49;102388.25;5029926;28;20507;-59
2023/03/03 05:02:27;;;;;;;30.52;19.55;;;;;;;4.07;63.50;102389.94;5028672;28;20092;-60
2023/03/03 05:04:52;;;;;;;29.30;19.02;;;;;;;4.03;63.85;102387.72;5029463;28;20026;-60
2023/03/03 05:07:18;;;;;;;31.83;20.55;;;;;;;4.02;64.08;102395.13;5026783;28;20040;-59
2023/03/03 05:09:44;;;;;;;28.48;18.23;;;;;;;4.01;63.90;102395.28;5030168;28;20032;-59
2023/03/03 05:12:09;;;;;;;31.45;19.90;;;;;;;3.92;63.88;102387.03;5024436;28;20030;-59
2023/03/03 05:14:34;;;;;;;29.05;19.13;;;;;;;3.87;64.29;102394.09;5030262;28;20030;-59
2023/03/03 05:17:00;;;;;;;31.02;19.38;;;;;;;3.93;64.35;102396.16;5030277;28;20136;-59
2023/03/03 05:19:25;;;;;;;31.77;19.73;;;;;;;3.95;64.11;102391.34;5025988;28;20034;-59
2023/03/03 05:21:50;;;;;;;32.30;21.20;;;;;;;3.89;64.81;102398.38;5033041;28;20076;-59
2023/03/03 05:24:16;;;;;;;32.03;19.83;;;;;;;3.93;64.27;102397.00;5032453;28;20037;-59
2023/03/03 05:26:41;;;;;;;33.67;20.52;;;;;;;3.95;64.66;102405.06;5031266;28;20151;-59
2023/03/03 05:29:07;;;;;;;36.55;20.98;;;;;;;3.92;64.43;102409.00;5028508;28;20052;-59
2023/03/03 05:31:33;;;;;;;33.20;20.30;;;;;;;3.98;64.07;102409.38;5029528;28;20029;-59
2023/03/03 05:33:58;;;;;;;33.72;21.08;;;;;;;4.01;64.37;102401.66;5024923;28;20034;-59
2023/03/03 05:36:24;;;;;;;31.67;20.98;;;;;;;4.01;64.63;102409.00;5031863;28;20061;-59
2023/03/03 05:38:49;;;;;;;30.83;19.95;;;;;;;4.00;64.10;102399.91;5027192;28;20029;-60
2023/03/03 05:41:15;;;;;;;31.52;19.45;;;;;;;4.03;64.48;102399.56;5032027;28;20041;-59
2023/03/03 05:43:40;;;;;;;31.40;19.73;;;;;;;4.05;64.40;102399.38;5033033;28;20021;-59
2023/03/03 05:46:06;;;;;;;32.88;19.75;;;;;;;3.99;64.54;102403.69;5027234;28;20108;-60
2023/03/03 05:48:32;;;;;;;33.10;19.83;;;;;;;3.96;64.87;102404.03;5031807;28;20035;-60
2023/03/03 05:50:59;;;;;;;29.35;19.30;;;;;;;3.98;64.95;102404.75;5027639;28;20653;-60
2023/03/03 05:53:25;;;;;;;32.33;19.85;;;;;;;3.98;64.67;102412.13;5025954;28;20030;-60
2023/03/03 05:55:50;;;;;;;33.65;19.65;;;;;;;4.00;64.80;102405.41;5028792;28;20112;-60
2023/03/03 05:58:16;;;;;;;33.20;20.13;;;;;;;3.98;64.93;102407.47;5022519;28;20117;-60
2023/03/03 06:00:41;;;;;;;35.30;20.33;;;;;;;4.00;65.22;102410.03;5027956;28;20041;-60
2023/03/03 06:03:06;;;;;;;32.85;19.70;;;;;;;4.01;64.34;102409.00;5028908;28;20037;-60
2023/03/03 06:05:32;;;;;;;31.90;18.63;;;;;;;4.00;64.42;102399.06;5032751;28;20032;-60
2023/03/03 06:07:58;;;;;;;32.60;19.17;;;;;;;4.02;64.65;102408.84;5031496;28;20123;-60
2023/03/03 06:10:24;;;;;;;30.67;19.15;;;;;;;4.01;64.76;102407.16;5031049;28;20037;-60
2023/03/03 06:12:49;;;;;;;31.27;19.13;;;;;;;4.07;64.50;102413.84;5028715;28;20033;-59
2023/03/03 06:15:14;;;;;;;32.05;19.65;;;;;;;4.02;64.64;102408.00;5026916;28;20591;-60
2023/03/03 06:17:39;;;;;;;29.55;18.70;;;;;;;4.04;64.52;102416.91;5031847;28;20037;-60
2023/03/03 06:20:05;;;;;;;34.70;20.42;;;;;;;4.03;64.92;102413.31;5025530;28;20040;-59
2023/03/03 06:22:31;;;;;;;32.65;19.80;;;;;;;4.07;64.64;102422.94;5028208;28;20063;-60
2023/03/03 06:24:56;;;;;;;29.90;18.85;;;;;;;4.09;64.68;102426.38;5027994;28;20507;-59
2023/03/03 06:27:22;;;;;;;38.17;20.70;;;;;;;4.02;64.81;102424.50;5031212;28;20036;-59
2023/03/03 06:29:47;;;;;;;33.47;19.60;;;;;;;4.04;64.93;102427.91;5028806;28;20432;-59
2023/03/03 06:32:13;;;;;;;30.77;18.58;;;;;;;4.06;64.67;102436.84;5026928;28;20040;-60
2023/03/03 06:34:38;;;;;;;31.83;19.35;;;;;;;4.05;64.69;102429.63;5026826;28;20064;-60
2023/03/03 06:37:09;;;;;;;35.80;20.73;;;;;;;4.07;64.88;102433.91;5024281;28;20033;-60
2023/03/03 06:39:34;;;;;;;32.40;20.08;;;;;;;4.10;64.50;102446.47;5024636;28;20033;-60
2023/03/03 06:42:00;;;;;;;37.35;19.92;;;;;;;4.10;64.66;102443.72;5027459;28;20115;-60
2023/03/03 06:44:25;;;;;;;34.10;20.45;;;;;;;4.14;64.33;102458.84;5025782;28;20045;-60
2023/03/03 06:46:56;;;;;;;35.70;20.48;;;;;;;4.14;64.68;102456.94;5029851;28;20432;-60
2023/03/03 06:49:27;;;;;;;32.90;20.35;;;;;;;4.12;64.40;102463.63;5026941;28;20035;-60
2023/03/03 06:51:52;;;;;;;33.58;19.65;;;;;;;4.10;64.95;102458.31;5028634;28;20036;-60
2023/03/03 06:54:22;;;;;;;29.60;18.63;;;;;;;4.11;64.78;102465.53;5024814;28;20045;-60
2023/03/03 06:56:52;;;;;;;34.10;20.17;;;;;;;4.10;64.90;102463.81;5028142;28;20618;-60
2023/03/03 06:59:20;;;;;;;33.00;19.70;;;;;;;4.17;64.68;102467.59;5029575;28;20473;-59
2023/03/03 07:01:49;;;;;;;34.72;20.58;;;;;;;4.18;64.86;102474.81;5026195;28;20034;-59
2023/03/03 07:04:25;;;;;;;33.53;19.17;;;;;;;4.23;64.39;102470.69;5025916;28;20128;-59
2023/03/03 07:06:50;;;;;;;34.42;20.27;;;;;;;4.18;64.41;102471.19;5024692;28;20037;-59
2023/03/03 07:09:25;;;;;;;34.55;20.50;;;;;;;4.22;64.75;102469.81;5040142;28;20021;-59
2023/03/03 07:11:52;;;;;;;33.35;20.02;;;;;;;4.21;64.80;102473.59;5022252;28;20029;-59
2023/03/03 07:14:19;;;;;;;35.25;20.25;;;;;;;4.18;64.80;102472.06;5029535;28;20374;-59
2023/03/03 07:16:45;;;;;;;34.33;20.88;;;;;;;4.19;64.36;102470.16;5029853;28;20789;-59
2023/03/03 07:19:20;;;;;;;30.63;19.70;;;;;;;4.23;64.31;102478.94;5029348;28;20041;-59
2023/03/03 07:21:46;;;;;;;38.65;20.55;;;;;;;4.22;64.67;102479.97;5029260;28;20021;-59
2023/03/03 07:24:23;;;;;;;34.47;19.08;;;;;;;4.25;64.46;102469.50;5027710;28;20733;-60
2023/03/03 07:26:50;;;;;;;35.83;21.63;;;;;;;4.25;64.34;102485.13;5028987;28;20040;-60
2023/03/03 07:29:25;;;;;;;36.65;21.25;;;;;;;4.23;65.12;102482.53;5028261;28;20037;-60
2023/03/03 07:31:55;;;;;;;35.40;21.20;;;;;;;4.21;64.71;102478.25;5028873;28;20029;-60
2023/03/03 07:34:25;;;;;;;37.13;20.63;;;;;;;4.26;64.75;102478.59;5020073;28;20493;-60
2023/03/03 07:36:58;;;;;;;38.05;21.48;;;;;;;4.24;65.26;102483.38;5026319;28;20080;-60
2023/03/03 07:39:39;;;;;;;34.92;20.48;;;;;;;4.29;65.05;102492.00;5024429;28;20385;-60
2023/03/03 07:42:08;;;;;;;38.70;21.63;;;;;;;4.25;65.53;102496.13;5028583;28;20037;-59
2023/03/03 07:44:35;;;;;;;37.17;21.77;;;;;;;4.24;65.35;102494.38;5024144;28;20485;-60
2023/03/03 07:47:32;;;;;;;34.78;20.67;;;;;;;4.27;65.18;102505.03;5025337;28;20037;-60
2023/03/03 07:50:21;;;;;;;36.40;20.83;;;;;;;4.31;65.24;102501.75;5019068;28;20040;-61
2023/03/03 07:52:58;;;;;;;33.33;18.63;;;;;;;4.31;65.34;102503.66;5005099;28;20095;-60
2023/03/03 07:55:26;;;;;;;37.28;20.77;;;;;;;4.33;64.65;102507.97;5014537;28;20033;-60
2023/03/03 07:57:53;;;;;;;36.83;21.33;;;;;;;4.29;64.99;102509.34;5025283;28;20083;-60
2023/03/03 08:00:18;;;;;;;38.67;21.90;;;;;;;4.30;64.84;102502.81;5026502;28;20060;-60
2023/03/03 08:03:02;;;;;;;36.33;22.00;;;;;;;4.34;64.71;102512.44;5018339;28;20504;-59
2023/03/03 08:05:30;;;;;;;39.13;20.70;;;;;;;4.54;67.20;102509.34;5021381;28;20022;-60
2023/03/03 08:08:12;;;;;;;34.70;19.20;;;;;;;4.58;64.58;102516.19;5021661;28;20026;-58
2023/03/03 08:10:52;;;;;;;36.15;20.13;;;;;;;4.57;64.20;102515.34;5027639;28;20038;-59
2023/03/03 08:13:22;;;;;;;35.30;20.15;;;;;;;4.49;64.39;102515.34;5020722;28;20040;-59
2023/03/03 08:16:08;;;;;;;32.85;19.40;;;;;;;4.49;64.36;102514.50;5024335;28;20025;-60
2023/03/03 08:18:46;;;;;;;36.72;19.95;;;;;;;4.48;63.91;102524.66;5024360;28;20029;-60
2023/03/03 08:21:21;;;;;;;30.70;18.15;;;;;;;4.46;64.17;102531.34;5021464;28;20026;-60
2023/03/03 08:23:50;;;;;;;34.53;20.15;;;;;;;4.42;63.76;102528.91;5019269;28;20037;-60
2023/03/03 08:26:18;;;;;;;35.17;19.35;;;;;;;4.41;63.66;102529.09;5015989;28;20538;-62
2023/03/03 08:28:44;;;;;;;31.17;17.92;;;;;;;4.43;63.54;102538.88;5018401;28;20045;-61
2023/03/03 08:31:10;;;;;;;31.25;17.92;;;;;;;4.42;63.53;102533.56;5023508;28;20036;-61
2023/03/03 08:33:35;;;;;;;31.60;17.98;;;;;;;4.40;63.24;102536.50;5022182;28;20079;-62
2023/03/03 08:36:01;;;;;;;29.30;16.05;;;;;;;4.41;63.38;102540.97;5028685;28;20377;-62
2023/03/03 08:38:27;;;;;;;30.10;17.20;;;;;;;4.44;63.38;102534.25;5023420;28;20104;-62
2023/03/03 08:40:54;;;;;;;31.10;17.25;;;;;;;4.44;63.57;102534.25;5022516;28;20354;-61
2023/03/03 08:43:21;;;;;;;29.70;17.35;;;;;;;4.43;63.70;102536.13;5025310;28;20112;-61
2023/03/03 08:45:49;;;;;;;28.10;17.05;;;;;;;4.43;63.65;102538.03;5022974;28;20163;-61
2023/03/03 08:48:17;;;;;;;33.40;19.42;;;;;;;4.51;66.88;102545.41;5022456;28;20041;-62
2023/03/03 08:50:43;;;;;;;39.03;21.60;;;;;;;4.54;65.30;102547.84;5013185;28;20044;-61
2023/03/03 08:53:10;;;;;;;38.28;20.85;;;;;;;4.55;65.24;102550.41;5010692;28;20037;-62
2023/03/03 08:55:35;;;;;;;40.92;21.67;;;;;;;4.54;64.68;102553.34;5021613;28;20045;-62
2023/03/03 08:58:00;;;;;;;36.33;20.77;;;;;;;4.55;64.66;102566.91;5022283;28;20387;-61
2023/03/03 09:00:25;;;;;;;33.38;19.80;;;;;;;4.54;64.70;102567.09;5017780;28;20461;-62
2023/03/03 09:02:51;;;;;;;37.50;20.48;;;;;;;4.54;64.85;102565.19;5024201;28;20037;-60
2023/03/03 09:05:19;;;;;;;35.83;20.17;;;;;;;4.52;64.83;102561.75;5012113;28;20036;-60
2023/03/03 09:07:45;;;;;;;38.15;20.10;;;;;;;4.56;64.15;102568.63;5026320;28;20037;-61
2023/03/03 09:10:14;;;;;;;34.75;19.27;;;;;;;4.56;64.64;102560.38;5022257;28;20030;-60
2023/03/03 09:12:47;;;;;;;32.53;20.08;;;;;;;4.65;65.37;102570.34;5019810;28;20484;-61
2023/03/03 09:15:29;;;;;;;32.08;19.27;;;;;;;4.68;64.77;102570.00;5024367;28;20037;-60
2023/03/03 09:18:21;;;;;;;33.15;18.92;;;;;;;4.72;64.27;102561.41;5025492;28;20041;-60
2023/03/03 09:20:49;;;;;;;32.92;18.73;;;;;;;4.65;64.34;102570.34;5023303;28;20042;-60
2023/03/03 09:23:37;;;;;;;34.25;18.38;;;;;;;4.64;64.18;102560.38;5024512;28;20041;-60
2023/03/03 09:26:40;;;;;;;29.27;16.48;;;;;;;4.63;63.75;102569.66;5014423;28;20092;-61
2023/03/03 09:29:22;;;;;;;28.77;15.88;;;;;;;4.65;63.87;102566.75;5021809;28;20041;-60
2023/03/03 09:31:50;;;;;;;28.23;17.40;;;;;;;4.61;63.63;102574.47;5025410;28;20033;-60
2023/03/03 09:34:19;;;;;;;28.23;15.93;;;;;;;4.65;63.41;102573.09;5024403;28;20075;-60
2023/03/03 09:36:45;;;;;;;30.38;17.23;;;;;;;4.64;63.30;102571.38;5024537;28;20038;-60
2023/03/03 09:39:20;;;;;;;26.15;15.65;;;;;;;4.65;63.57;102570.34;5015668;28;20037;-60
2023/03/03 09:42:25;;;;;;;25.48;15.65;;;;;;;4.70;63.98;102574.47;5023608;28;20139;-61
2023/03/03 09:45:17;;;;;;;25.90;15.63;;;;;;;4.68;63.51;102574.66;5021893;28;20080;-61
2023/03/03 09:47:54;;;;;;;24.17;15.00;;;;;;;4.67;63.96;102573.78;5027772;28;20029;-61
2023/03/03 09:51:01;;;;;;;26.65;13.13;;;;;;;4.88;67.91;102576.00;5025016;28;20029;-61
2023/03/03 09:53:26;;;;;;;22.98;14.40;;;;;;;4.82;63.52;102573.94;5023209;28;20056;-65
2023/03/03 09:56:07;;;;;;;24.52;14.18;;;;;;;4.87;63.41;102579.81;5023212;28;21682;-60
2023/03/03 09:58:32;;;;;;;20.83;12.48;;;;;;;4.86;63.12;102585.47;5022197;28;20041;-61
2023/03/03 10:01:18;;;;;;;21.50;13.02;;;;;;;4.86;63.30;102588.22;5024739;28;20029;-61
2023/03/03 10:04:06;;;;;;;23.00;13.45;;;;;;;4.85;62.91;102586.50;5016626;28;20021;-61
2023/03/03 10:06:55;;;;;;;19.33;12.25;;;;;;;4.87;63.07;102584.44;5027815;28;20025;-62
2023/03/03 10:09:53;;;;;;;21.60;13.23;;;;;;;4.88;63.14;102597.16;5031693;28;20033;-62
2023/03/03 10:12:26;;;;;;;21.42;13.30;;;;;;;4.85;62.76;102589.25;5024641;28;20030;-60
2023/03/03 10:15:12;;;;;;;20.35;12.27;;;;;;;4.87;62.54;102595.44;5027388;28;20381;-61
2023/03/03 10:17:49;;;;;;;20.92;12.32;;;;;;;4.89;62.66;102588.72;5026648;28;20399;-60
2023/03/03 10:20:46;;;;;;;22.10;13.15;;;;;;;4.91;62.74;102585.78;5022053;28;20639;-58
2023/03/03 10:23:40;;;;;;;22.75;12.45;;;;;;;4.97;62.93;102590.63;5027032;28;20499;-60
2023/03/03 10:26:20;;;;;;;19.60;12.48;;;;;;;4.98;63.09;102592.31;5021223;28;20073;-61
2023/03/03 10:29:06;;;;;;;20.90;12.75;;;;;;;4.93;63.00;102594.75;5027637;28;20443;-62
2023/03/03 10:31:56;;;;;;;21.50;11.73;;;;;;;4.96;62.83;102599.91;5028526;28;20029;-61
2023/03/03 10:34:53;;;;;;;20.95;12.18;;;;;;;4.99;62.93;102594.06;5028527;28;20034;-62
2023/03/03 10:37:40;;;;;;;22.25;12.93;;;;;;;4.99;62.91;102590.44;5026918;28;20037;-61
2023/03/03 10:40:31;;;;;;;20.42;13.15;;;;;;;5.07;62.82;102595.91;5031492;28;20071;-61
2023/03/03 10:43:24;;;;;;;19.40;12.38;;;;;;;5.13;63.08;102589.75;5030497;28;20044;-62
2023/03/03 10:45:58;;;;;;;;;;;;;;;5.27;62.52;102586.28;5022845;28;20114;-62
2023/03/03 10:48:56;;;;;;;19.27;12.20;;;;;;;5.33;62.52;102585.56;5023191;28;19967;-61
2023/03/03 10:51:36;;;;;;;21.65;12.02;;;;;;;5.35;62.81;102579.91;5018238;28;20052;-63
2023/03/03 10:54:20;;;;;;;22.35;13.27;;;;;;;5.40;62.83;102582.97;5021958;28;20055;-62
2023/03/03 10:57:00;;;;;;;19.63;12.15;;;;;;;5.45;62.40;102588.78;5020408;28;20040;-62
2023/03/03 10:59:34;;;;;;;19.83;11.85;;;;;;;5.49;62.29;102584.66;5025712;28;20116;-62
2023/03/03 11:01:59;;;;;;;21.67;13.27;;;;;;;5.52;61.75;102587.06;5022548;28;20121;-62
2023/03/03 11:04:27;;;;;;;21.55;12.68;;;;;;;5.53;62.33;102585.16;5022964;28;20064;-61
2023/03/03 11:07:23;;;;;;;21.00;12.73;;;;;;;5.58;62.08;102589.13;5029031;28;20068;-61
2023/03/03 11:09:57;;;;;;;21.42;13.07;;;;;;;5.56;62.08;102585.66;5021290;28;20389;-62
2023/03/03 11:12:46;;;;;;;23.38;13.35;;;;;;;5.69;63.08;102581.47;5027993;28;20038;-67
2023/03/03 11:15:20;;;;;;;23.00;13.88;;;;;;;5.68;62.03;102579.78;5028354;28;20051;-62
2023/03/03 11:18:09;;;;;;;22.63;13.48;;;;;;;5.70;61.89;102585.94;5025293;28;20540;-59
2023/03/03 11:20:45;;;;;;;23.23;13.07;;;;;;;5.68;61.90;102580.63;5024825;28;20041;-61
2023/03/03 11:23:19;;;;;;;19.55;12.77;;;;;;;5.66;62.37;102586.31;5022250;28;20811;-61
2023/03/03 11:26:22;;;;;;;20.98;12.85;;;;;;;5.69;61.96;102581.47;5017036;28;20616;-61
2023/03/03 11:29:10;;;;;;;23.67;13.80;;;;;;;5.69;61.84;102576.81;5027645;28;20116;-61
2023/03/03 11:31:47;;;;;;;23.13;13.10;;;;;;;5.77;62.48;102582.28;5024763;28;20049;-62
2023/03/03 11:34:22;;;;;;;22.15;14.05;;;;;;;5.80;61.83;102562.66;5028153;28;20036;-61
2023/03/03 11:37:00;;;;;;;24.73;13.05;;;;;;;5.78;62.26;102573.00;5025906;28;20021;-62